Time;durP1;ratioP1;P1;durP2;ratioP2;P2;SDS_P1;SDS_P2;PMS_P1;PMS_P2;Temp;Humidity;BMP_temperature;BMP_pressure;BME280_temperature;BME280_humidity;BME280_pressure;Samples;Min_cycle;Max_cycle;Signal;HPM_P1;HPM_P2
2023/02/13 00:00:16;;;;;;;39.33;22.17;;;8.50;60.30;;;;;;5055309;28;20124;-81
2023/02/13 00:02:42;;;;;;;50.17;23.58;;;8.50;60.30;;;;;;5055286;28;20033;-81
2023/02/13 00:05:08;;;;;;;45.60;23.38;;;8.50;60.20;;;;;;5055193;28;20493;-82
2023/02/13 00:07:34;;;;;;;42.53;22.20;;;8.50;60.30;;;;;;5055289;28;20029;-81
2023/02/13 00:10:00;;;;;;;37.42;20.80;;;8.50;60.30;;;;;;5035046;28;20096;-81
2023/02/13 00:12:25;;;;;;;44.47;21.83;;;8.50;60.30;;;;;;5037236;28;20031;-83
2023/02/13 00:14:51;;;;;;;41.88;22.02;;;8.40;60.30;;;;;;5055004;28;20095;-83
2023/02/13 00:17:17;;;;;;;39.72;20.48;;;8.40;60.30;;;;;;5054475;28;20025;-83
2023/02/13 00:19:43;;;;;;;37.85;20.15;;;8.40;60.40;;;;;;5054956;28;20059;-81
2023/02/13 00:22:09;;;;;;;40.35;20.25;;;8.30;60.40;;;;;;5036953;28;20025;-81
2023/02/13 00:24:35;;;;;;;44.40;20.70;;;8.30;60.50;;;;;;5036646;28;20021;-83
2023/02/13 00:27:00;;;;;;;44.80;23.08;;;8.30;60.50;;;;;;5054759;28;20363;-81
2023/02/13 00:29:26;;;;;;;43.03;21.60;;;8.30;60.60;;;;;;5054690;28;20067;-82
2023/02/13 00:31:52;;;;;;;43.97;21.25;;;8.30;60.60;;;;;;5054902;28;20021;-80
2023/02/13 00:34:18;;;;;;;41.92;20.80;;;8.30;60.70;;;;;;5035922;28;20032;-81
2023/02/13 00:36:44;;;;;;;41.80;21.80;;;8.30;60.70;;;;;;5036758;28;20031;-81
2023/02/13 00:39:11;;;;;;;49.83;23.33;;;8.20;60.60;;;;;;5036839;28;20025;-80
2023/02/13 00:41:37;;;;;;;50.50;25.10;;;8.20;60.60;;;;;;5054673;28;20029;-81
2023/02/13 00:44:03;;;;;;;48.63;24.63;;;8.20;60.60;;;;;;5054429;28;20104;-81
2023/02/13 00:46:29;;;;;;;50.97;24.95;;;8.20;60.60;;;;;;5036744;28;20056;-81
2023/02/13 00:48:55;;;;;;;50.60;23.90;;;8.10;60.50;;;;;;5054315;28;20087;-83
2023/02/13 00:51:20;;;;;;;47.17;23.05;;;8.10;60.60;;;;;;5036283;28;20037;-81
2023/02/13 00:53:46;;;;;;;38.45;19.73;;;8.10;60.70;;;;;;5036215;28;20029;-83
2023/02/13 00:56:12;;;;;;;34.40;18.98;;;8.10;60.70;;;;;;5054159;28;20032;-82
2023/02/13 00:58:38;;;;;;;37.05;18.85;;;8.10;60.80;;;;;;5036291;28;20386;-81
2023/02/13 01:01:04;;;;;;;42.00;21.35;;;8.10;60.90;;;;;;5053945;28;20033;-80
2023/02/13 01:03:30;;;;;;;44.58;21.55;;;8.10;60.90;;;;;;5053945;28;20040;-81
2023/02/13 01:05:57;;;;;;;38.70;20.23;;;8.10;60.90;;;;;;5053965;28;20462;-81
2023/02/13 01:08:23;;;;;;;46.30;21.85;;;8.10;61.00;;;;;;5040639;28;20363;-82
2023/02/13 01:10:49;;;;;;;47.40;23.83;;;8.10;61.10;;;;;;5053823;28;20024;-81
2023/02/13 01:13:19;;;;;;;48.88;24.17;;;8.00;61.10;;;;;;5053883;28;20020;-82
2023/02/13 01:15:46;;;;;;;56.58;26.73;;;8.10;61.30;;;;;;5054025;28;20119;-81
2023/02/13 01:18:14;;;;;;;54.70;27.50;;;8.10;61.30;;;;;;5035928;28;20538;-82
2023/02/13 01:20:41;;;;;;;62.17;28.70;;;8.10;61.40;;;;;;5035627;28;20120;-80
2023/02/13 01:23:06;;;;;;;60.10;28.73;;;8.10;61.50;;;;;;5053789;28;20104;-81
2023/02/13 01:25:32;;;;;;;56.63;26.95;;;8.10;61.50;;;;;;5053033;28;20098;-80
2023/02/13 01:27:58;;;;;;;50.15;24.95;;;8.10;61.40;;;;;;5041440;28;20029;-80
2023/02/13 01:30:24;;;;;;;49.22;23.20;;;8.10;61.40;;;;;;5015602;28;20033;-80
2023/02/13 01:32:50;;;;;;;60.08;26.98;;;8.10;61.40;;;;;;5033590;28;20028;-83
2023/02/13 01:35:16;;;;;;;52.67;25.52;;;8.10;61.50;;;;;;5015864;28;20483;-83
2023/02/13 01:37:42;;;;;;;59.65;27.17;;;8.10;61.50;;;;;;5015911;28;20025;-80
2023/02/13 01:40:11;;;;;;;59.45;28.50;;;8.10;61.50;;;;;;5015853;28;20029;-80
2023/02/13 01:42:38;;;;;;;61.50;28.60;;;8.10;61.60;;;;;;5033324;28;20017;-82
2023/02/13 01:45:15;;;;;;;61.28;27.35;;;8.10;62.40;;;;;;5015629;28;20021;-80
2023/02/13 01:47:48;;;;;;;82.30;30.83;;;8.10;61.80;;;;;;5015712;28;20018;-81
2023/02/13 01:50:27;;;;;;;61.95;28.70;;;8.10;61.90;;;;;;5033067;28;20112;-83
2023/02/13 01:53:07;;;;;;;67.85;31.98;;;8.10;62.00;;;;;;5015850;28;20026;-80
2023/02/13 01:55:37;;;;;;;60.80;28.10;;;8.00;62.10;;;;;;5033348;28;20112;-80
2023/02/13 01:58:10;;;;;;;56.42;25.10;;;8.00;62.20;;;;;;5029455;28;20037;-80
2023/02/13 02:00:37;;;;;;;58.85;27.67;;;8.00;62.30;;;;;;5053279;28;20331;-80
2023/02/13 02:03:15;;;;;;;57.70;26.65;;;8.00;62.40;;;;;;5053109;28;20029;-82
2023/02/13 02:05:42;;;;;;;51.17;24.30;;;8.00;62.50;;;;;;5053309;28;20021;-83
2023/02/13 02:08:12;;;;;;;51.63;24.55;;;8.00;62.50;;;;;;5035054;28;20074;-80
2023/02/13 02:10:38;;;;;;;45.67;21.33;;;8.00;62.60;;;;;;5031833;28;20021;-82
2023/02/13 02:13:10;;;;;;;51.42;24.95;;;8.00;62.50;;;;;;5035120;28;20021;-81
2023/02/13 02:15:36;;;;;;;44.65;22.48;;;8.00;62.50;;;;;;5052932;28;20104;-81
2023/02/13 02:18:02;;;;;;;49.20;22.50;;;8.10;62.50;;;;;;5052787;28;20033;-82
2023/02/13 02:21:25;;;;;;;50.85;23.75;;;8.10;62.40;;;;;;5052934;28;20055;-81
2023/02/13 02:24:16;;;;;;;39.97;20.13;;;8.00;62.30;;;;;;4953063;29;20106;-80
2023/02/13 02:27:09;;;;;;;42.60;22.77;;;8.10;62.20;;;;;;4971212;28;20035;-81
2023/02/13 02:30:25;;;;;;;37.83;20.08;;;8.10;62.10;;;;;;5038251;28;20104;-83
2023/02/13 02:33:02;;;;;;;38.83;19.60;;;8.00;62.10;;;;;;4975223;28;20029;-81
2023/02/13 02:35:56;;;;;;;39.10;20.67;;;8.10;62.10;;;;;;5044698;28;20037;-82
2023/02/13 02:38:31;;;;;;;45.15;23.40;;;8.10;62.10;;;;;;5052756;28;20025;-81
2023/02/13 02:41:01;;;;;;;38.50;20.70;;;8.00;61.70;;;;;;5054012;28;20390;-81
2023/02/13 02:43:40;;;;;;;38.88;20.40;;;8.00;61.60;;;;;;5055465;28;20033;-82
2023/02/13 02:46:13;;;;;;;38.72;19.63;;;8.00;61.60;;;;;;5056590;28;20017;-83
2023/02/13 02:51:50;;;;;;;40.58;21.65;;;8.00;61.50;;;;;;5056657;28;20166;-82
2023/02/13 02:57:24;;;;;;;40.95;21.52;;;7.90;61.20;;;;;;5056784;28;20115;-82
2023/02/13 03:08:13;;;;;;;41.00;21.42;;;7.80;61.80;;;;;;5057087;28;20481;-80
2023/02/13 03:13:37;;;;;;;42.72;20.75;;;7.80;62.10;;;;;;5056857;28;20484;-79
2023/02/13 03:22:17;;;;;;;44.75;21.88;;;7.90;62.10;;;;;;5056541;28;20087;-83
2023/02/13 03:25:02;;;;;;;44.47;21.52;;;7.90;62.00;;;;;;5015062;28;20025;-80
2023/02/13 03:30:55;;;;;;;40.95;20.70;;;7.90;62.60;;;;;;5056368;28;20029;-81
2023/02/13 03:33:52;;;;;;;40.38;20.92;;;8.00;61.80;;;;;;5055744;28;20021;-81
2023/02/13 03:39:59;;;;;;;41.97;20.48;;;7.90;61.70;;;;;;5060115;28;20390;-81
2023/02/13 03:42:36;;;;;;;37.47;18.75;;;7.90;61.60;;;;;;5031984;28;20048;-81
2023/02/13 03:47:57;;;;;;;39.42;21.17;;;7.90;61.60;;;;;;5056259;28;20501;-80
2023/02/13 03:50:25;;;;;;;39.75;21.05;;;7.90;61.60;;;;;;5055358;28;20028;-82
2023/02/13 03:53:02;;;;;;;40.47;19.90;;;7.90;61.70;;;;;;5053373;28;20487;-82
2023/02/13 04:01:30;;;;;;;42.13;21.05;;;8.00;61.70;;;;;;5055782;28;20378;-81
2023/02/13 04:04:37;;;;;;;34.85;18.90;;;8.00;61.60;;;;;;5055435;28;20036;-80
2023/02/13 04:07:10;;;;;;;37.10;19.00;;;8.00;61.60;;;;;;4975380;28;20042;-81
2023/02/13 04:09:41;;;;;;;38.67;20.30;;;8.00;61.50;;;;;;4958491;28;20023;-80
2023/02/13 04:12:26;;;;;;;45.35;21.92;;;8.00;61.50;;;;;;5010297;28;20029;-81
2023/02/13 04:15:02;;;;;;;42.97;21.08;;;8.00;61.50;;;;;;5054922;28;20033;-80
2023/02/13 04:17:35;;;;;;;50.38;24.55;;;8.00;61.40;;;;;;5055012;28;20056;-80
2023/02/13 04:20:01;;;;;;;43.42;21.63;;;8.00;61.40;;;;;;5037317;28;20029;-82
2023/02/13 04:22:27;;;;;;;48.08;20.63;;;8.00;61.50;;;;;;5036901;28;20029;-80
2023/02/13 04:24:53;;;;;;;52.75;24.27;;;8.00;61.50;;;;;;5070245;28;20091;-82
2023/02/13 04:27:19;;;;;;;58.13;24.42;;;8.00;61.50;;;;;;5054638;28;20036;-83
2023/02/13 04:29:45;;;;;;;60.67;26.30;;;8.00;61.50;;;;;;5054606;28;20028;-82
2023/02/13 04:32:11;;;;;;;59.30;24.42;;;8.00;61.50;;;;;;5070178;28;20032;-81
2023/02/13 04:34:37;;;;;;;54.70;24.58;;;8.00;61.40;;;;;;5054614;28;20203;-82
2023/02/13 04:37:03;;;;;;;53.40;22.13;;;8.00;61.30;;;;;;5036516;28;20064;-80
2023/02/13 04:39:29;;;;;;;63.65;26.38;;;8.00;61.30;;;;;;5054504;28;20036;-81
2023/02/13 04:41:54;;;;;;;56.00;23.92;;;7.90;61.20;;;;;;5036491;28;20031;-82
2023/02/13 04:44:20;;;;;;;54.85;24.35;;;7.90;61.30;;;;;;5054511;28;20067;-82
2023/02/13 04:46:46;;;;;;;50.63;23.00;;;7.80;61.50;;;;;;5053213;28;20075;-81
2023/02/13 04:49:12;;;;;;;47.55;22.00;;;7.80;61.60;;;;;;5054391;28;20024;-82
2023/02/13 04:51:38;;;;;;;47.55;22.80;;;7.80;61.80;;;;;;5054180;28;20041;-83
2023/02/13 04:54:04;;;;;;;50.78;23.83;;;7.80;61.90;;;;;;5053229;28;20047;-81
2023/02/13 04:56:29;;;;;;;51.00;22.95;;;7.90;62.00;;;;;;5053037;28;20025;-83
2023/02/13 04:58:55;;;;;;;54.08;24.33;;;7.90;62.00;;;;;;5054266;28;20115;-82
2023/02/13 05:01:21;;;;;;;43.30;21.63;;;7.90;62.10;;;;;;5054081;28;20060;-82
2023/02/13 05:03:47;;;;;;;65.40;27.55;;;7.90;62.00;;;;;;5054128;28;20036;-80
2023/02/13 05:06:13;;;;;;;57.13;24.83;;;7.90;62.10;;;;;;5054194;28;20017;-81
2023/02/13 05:08:39;;;;;;;67.43;25.95;;;7.90;62.10;;;;;;5054164;28;20382;-82
2023/02/13 05:11:05;;;;;;;59.80;25.23;;;7.90;62.10;;;;;;5053887;28;20017;-80
2023/02/13 05:13:32;;;;;;;60.72;24.38;;;7.90;62.10;;;;;;5052672;28;20545;-81
2023/02/13 05:15:57;;;;;;;64.32;25.00;;;7.90;62.10;;;;;;5054042;28;20028;-81
2023/02/13 05:18:23;;;;;;;66.10;26.55;;;7.90;62.10;;;;;;5053851;28;20101;-80
2023/02/13 05:23:21;;;;;;;60.60;25.35;;;7.90;62.10;;;;;;5054270;28;20021;-81
2023/02/13 05:23:35;;;;;;;70.45;25.08;;;7.90;62.20;;;;;;5053606;28;20108;-81
2023/02/13 05:26:01;;;;;;;79.90;32.47;;;7.90;62.10;;;;;;5053745;28;20482;-80
2023/02/13 05:31:11;;;;;;;72.78;27.52;;;7.80;62.20;;;;;;5053709;28;20142;-81
2023/02/13 05:33:37;;;;;;;79.97;26.92;;;7.70;62.30;;;;;;5052294;28;20029;-82
2023/02/13 05:36:03;;;;;;;79.68;25.70;;;7.70;62.60;;;;;;5053481;28;20025;-82
2023/02/13 05:38:29;;;;;;;103.25;33.08;;;7.70;62.70;;;;;;5053496;28;20112;-81
2023/02/13 05:40:57;;;;;;;100.75;35.13;;;7.70;62.90;;;;;;5052153;28;20049;-80
2023/02/13 05:43:22;;;;;;;92.95;32.60;;;7.60;62.90;;;;;;5053310;28;20056;-81
2023/02/13 05:45:48;;;;;;;85.00;29.05;;;7.60;63.10;;;;;;5053683;28;20045;-80
2023/02/13 05:48:17;;;;;;;86.20;29.38;;;7.60;63.20;;;;;;5052103;28;20025;-82
2023/02/13 05:50:46;;;;;;;88.78;29.55;;;7.60;63.40;;;;;;5053120;28;20037;-81
2023/02/13 05:53:12;;;;;;;84.95;27.85;;;7.70;63.50;;;;;;5051958;28;20029;-81
2023/02/13 05:55:38;;;;;;;116.30;32.63;;;7.70;63.50;;;;;;5052036;28;20056;-81
2023/02/13 05:58:04;;;;;;;109.40;34.13;;;7.70;63.50;;;;;;5053300;28;20055;-82
2023/02/13 06:00:30;;;;;;;104.28;34.53;;;7.70;63.50;;;;;;5053276;28;20021;-81
2023/02/13 06:02:55;;;;;;;120.45;36.85;;;7.70;63.40;;;;;;5051687;28;20120;-80
2023/02/13 06:05:21;;;;;;;149.02;43.17;;;7.70;63.40;;;;;;5052840;28;20090;-80
2023/02/13 06:07:47;;;;;;;104.13;34.05;;;7.70;63.40;;;;;;5038442;28;20104;-80
2023/02/13 06:10:13;;;;;;;89.70;32.38;;;7.70;63.40;;;;;;5033093;28;20037;-82
2023/02/13 06:12:38;;;;;;;85.85;31.33;;;7.70;63.50;;;;;;5034638;28;20060;-82
2023/02/13 06:15:05;;;;;;;91.07;30.52;;;7.70;63.50;;;;;;5047415;28;20482;-81
2023/02/13 06:17:31;;;;;;;87.32;28.85;;;7.70;63.60;;;;;;5052793;28;20039;-81
2023/02/13 06:19:57;;;;;;;88.40;29.42;;;7.80;63.60;;;;;;5052710;28;20418;-81
2023/02/13 06:22:22;;;;;;;86.22;29.70;;;7.80;63.60;;;;;;5051395;28;20116;-81
2023/02/13 06:24:48;;;;;;;86.95;29.77;;;7.80;63.50;;;;;;5053252;28;20378;-80
2023/02/13 06:27:14;;;;;;;89.65;30.98;;;7.80;63.60;;;;;;5051660;28;20428;-80
2023/02/13 06:29:40;;;;;;;88.07;30.23;;;7.80;63.50;;;;;;5051740;28;20075;-81
2023/02/13 06:32:05;;;;;;;71.65;27.52;;;7.90;63.60;;;;;;5053627;28;20374;-82
2023/02/13 06:34:31;;;;;;;85.88;29.73;;;7.80;63.50;;;;;;5052617;28;20097;-79
2023/02/13 06:36:57;;;;;;;97.88;31.23;;;7.90;63.60;;;;;;5052999;28;20021;-81
2023/02/13 06:39:23;;;;;;;95.95;33.65;;;7.90;63.50;;;;;;5052822;28;20037;-79
2023/02/13 06:41:49;;;;;;;83.97;28.75;;;7.90;63.50;;;;;;5052743;28;20107;-81
2023/02/13 06:44:14;;;;;;;93.32;32.13;;;8.00;63.50;;;;;;5052719;28;20381;-82
2023/02/13 06:46:40;;;;;;;92.80;30.15;;;8.00;63.50;;;;;;5052592;28;20029;-82
2023/02/13 06:49:06;;;;;;;84.40;29.40;;;8.00;63.40;;;;;;5052525;28;20060;-81
2023/02/13 06:51:32;;;;;;;80.50;28.80;;;8.00;63.30;;;;;;5052448;28;20552;-82
2023/02/13 06:53:57;;;;;;;90.45;29.17;;;8.00;63.30;;;;;;5034708;28;20032;-80
2023/02/13 06:56:25;;;;;;;84.78;30.52;;;8.10;63.40;;;;;;5034615;28;20021;-80
2023/02/13 06:58:51;;;;;;;98.32;33.40;;;8.10;63.30;;;;;;5052877;28;20048;-80
2023/02/13 07:01:16;;;;;;;97.43;31.83;;;8.10;63.20;;;;;;5053009;28;20060;-82
2023/02/13 07:03:42;;;;;;;93.97;29.98;;;8.10;63.20;;;;;;5053362;28;20435;-83
2023/02/13 07:06:08;;;;;;;78.07;29.70;;;8.10;63.20;;;;;;5053469;28;20021;-82
2023/02/13 07:08:34;;;;;;;76.70;28.90;;;8.20;63.10;;;;;;5035271;28;20036;-80
2023/02/13 07:10:59;;;;;;;85.10;30.10;;;8.20;63.20;;;;;;5052838;28;20314;-83
2023/02/13 07:13:25;;;;;;;96.47;32.10;;;8.20;63.00;;;;;;5034737;28;20039;-82
2023/02/13 07:15:51;;;;;;;96.10;32.95;;;8.20;62.90;;;;;;5032655;28;20478;-81
2023/02/13 07:18:17;;;;;;;105.40;35.58;;;8.20;62.80;;;;;;5052362;28;20021;-83
2023/02/13 07:20:43;;;;;;;107.32;37.30;;;8.20;62.80;;;;;;5052672;28;20036;-81
2023/02/13 07:23:09;;;;;;;111.75;36.25;;;8.10;62.70;;;;;;5052699;28;20025;-82
2023/02/13 07:25:35;;;;;;;102.43;35.78;;;8.10;62.80;;;;;;5052341;28;20025;-82
2023/02/13 07:28:03;;;;;;;102.00;35.92;;;8.00;62.80;;;;;;5055042;28;20469;-81
2023/02/13 07:30:30;;;;;;;110.38;39.95;;;8.00;63.00;;;;;;5037954;28;20040;-82
2023/02/13 07:33:00;;;;;;;97.28;34.88;;;7.90;63.10;;;;;;5038330;28;20025;-83
2023/02/13 07:35:26;;;;;;;88.65;31.90;;;7.90;63.30;;;;;;5056247;28;20040;-81
2023/02/13 07:37:54;;;;;;;90.60;32.13;;;7.90;63.40;;;;;;5037855;28;20029;-81
2023/02/13 07:40:19;;;;;;;78.88;30.40;;;7.90;63.50;;;;;;5055848;28;20028;-81
2023/02/13 07:42:45;;;;;;;80.20;28.73;;;8.00;63.60;;;;;;5055295;28;20033;-82
2023/02/13 07:45:11;;;;;;;81.97;28.63;;;8.00;63.70;;;;;;5055457;28;20520;-82
2023/02/13 07:47:37;;;;;;;78.20;29.90;;;8.10;63.70;;;;;;5055851;28;20021;-81
2023/02/13 07:50:04;;;;;;;97.68;34.65;;;8.10;63.70;;;;;;5030783;28;20388;-81
2023/02/13 07:52:31;;;;;;;91.90;32.75;;;8.20;63.60;;;;;;5035509;28;20037;-83
2023/02/13 07:54:57;;;;;;;91.97;31.30;;;8.20;63.20;;;;;;5017893;28;20474;-82
2023/02/13 07:57:23;;;;;;;99.60;33.67;;;8.30;63.40;;;;;;5035677;28;20032;-82
2023/02/13 07:59:57;;;;;;;101.28;33.33;;;8.30;63.40;;;;;;5046043;28;20033;-81
2023/02/13 08:02:23;;;;;;;;;;;8.40;63.40;;;;;;5037633;28;20036;-80
2023/02/13 08:04:49;;;;;;;84.03;30.20;;;8.50;63.30;;;;;;5053950;28;19916;-82
2023/02/13 08:07:17;;;;;;;94.15;32.53;;;8.60;63.20;;;;;;5055313;28;20494;-81
2023/02/13 08:12:30;;;;;;;92.65;33.67;;;8.70;62.90;;;;;;5055057;28;20040;-81
2023/02/13 08:14:57;;;;;;;85.82;33.03;;;8.70;62.60;;;;;;5047391;28;20028;-81
2023/02/13 08:17:23;;;;;;;68.55;29.45;;;8.70;62.30;;;;;;5055612;28;20032;-82
2023/02/13 08:19:49;;;;;;;69.68;28.98;;;8.80;62.10;;;;;;5059824;28;20036;-81
2023/02/13 08:22:15;;;;;;;66.00;26.20;;;8.80;62.00;;;;;;5072049;28;20028;-80
2023/02/13 08:24:41;;;;;;;74.35;30.30;;;8.80;61.80;;;;;;5081912;28;20507;-82
2023/02/13 08:27:09;;;;;;;94.72;34.45;;;8.90;61.70;;;;;;5060090;28;20023;-83
2023/02/13 08:29:35;;;;;;;94.68;34.15;;;8.90;61.80;;;;;;5043502;28;20316;-81
2023/02/13 08:32:01;;;;;;;86.07;35.03;;;9.00;61.70;;;;;;5039825;28;20025;-83
2023/02/13 08:34:26;;;;;;;96.22;37.28;;;9.00;61.70;;;;;;5036351;28;20020;-83
2023/02/13 08:36:52;;;;;;;92.80;34.85;;;9.00;61.60;;;;;;5070726;28;20077;-82
2023/02/13 08:39:18;;;;;;;87.95;32.15;;;9.10;61.60;;;;;;5058624;28;20062;-81
2023/02/13 08:41:44;;;;;;;79.35;30.55;;;9.10;61.40;;;;;;5065921;28;20429;-83
2023/02/13 08:44:10;;;;;;;78.10;29.73;;;9.10;61.30;;;;;;5059702;28;20054;-83
2023/02/13 08:46:36;;;;;;;73.43;28.05;;;9.20;61.30;;;;;;5069766;28;20096;-82
2023/02/13 08:49:02;;;;;;;59.42;24.52;;;9.20;61.30;;;;;;5039592;28;20159;-81
2023/02/13 08:51:27;;;;;;;59.42;27.70;;;9.30;61.20;;;;;;5050923;28;20091;-82
2023/02/13 08:53:53;;;;;;;58.70;27.55;;;9.30;61.00;;;;;;5045735;28;20024;-84
2023/02/13 08:56:19;;;;;;;59.58;25.70;;;9.40;60.70;;;;;;5061121;28;20379;-80
2023/02/13 08:58:48;;;;;;;56.38;25.73;;;9.40;60.60;;;;;;5052762;28;20070;-80
2023/02/13 09:01:14;;;;;;;56.83;27.45;;;9.50;60.70;;;;;;5058022;28;20031;-80
2023/02/13 09:03:40;;;;;;;89.68;37.65;;;9.50;60.40;;;;;;5048432;28;20114;-81
2023/02/13 09:06:06;;;;;;;80.70;34.55;;;9.50;60.20;;;;;;5065142;28;20477;-82
2023/02/13 09:08:34;;;;;;;71.95;32.83;;;9.50;60.00;;;;;;5058999;28;20390;-81
2023/02/13 09:11:02;;;;;;;84.25;38.15;;;9.50;60.00;;;;;;5069605;28;20014;-80
2023/02/13 09:13:29;;;;;;;85.90;38.13;;;9.60;60.00;;;;;;5065627;28;20053;-82
2023/02/13 09:15:59;;;;;;;76.05;32.33;;;9.60;60.00;;;;;;5033840;28;20488;-83
2023/02/13 09:18:25;;;;;;;61.45;29.63;;;9.70;60.00;;;;;;5036270;28;20120;-81
2023/02/13 09:20:59;;;;;;;62.35;29.15;;;9.70;60.80;;;;;;5036035;28;20028;-80
2023/02/13 09:23:25;;;;;;;59.65;27.58;;;9.70;59.90;;;;;;5035989;28;20025;-82
2023/02/13 09:25:51;;;;;;;60.67;28.17;;;9.70;59.90;;;;;;5050939;28;20025;-81
2023/02/13 09:28:16;;;;;;;60.40;28.15;;;9.70;59.80;;;;;;5053926;28;20364;-81
2023/02/13 09:30:43;;;;;;;58.83;28.67;;;9.80;59.70;;;;;;5046269;28;20129;-79
2023/02/13 09:33:13;;;;;;;60.45;26.88;;;9.80;59.50;;;;;;5053722;28;20029;-79
2023/02/13 09:35:41;;;;;;;62.03;28.70;;;9.90;59.50;;;;;;5035849;28;20287;-81
2023/02/13 09:38:07;;;;;;;64.95;30.02;;;9.90;59.50;;;;;;5040900;28;20020;-81
2023/02/13 09:40:58;;;;;;;71.70;31.08;;;9.90;59.30;;;;;;5052976;28;20021;-81
2023/02/13 09:43:43;;;;;;;58.30;29.08;;;9.90;59.20;;;;;;5033519;28;20475;-82
2023/02/13 09:46:33;;;;;;;58.42;27.05;;;9.90;59.20;;;;;;5016563;28;20386;-80
2023/02/13 09:49:06;;;;;;;60.88;27.60;;;10.00;59.20;;;;;;5015743;28;20029;-81
2023/02/13 09:51:32;;;;;;;74.60;31.67;;;10.00;59.10;;;;;;5014228;28;20053;-83
2023/02/13 09:54:04;;;;;;;61.28;29.25;;;10.00;59.10;;;;;;5032193;28;20471;-81
2023/02/13 09:56:53;;;;;;;61.15;28.23;;;10.00;58.90;;;;;;5033537;28;20025;-81
2023/02/13 09:59:36;;;;;;;66.28;29.55;;;10.00;58.80;;;;;;5032114;28;20033;-80
2023/02/13 10:02:30;;;;;;;63.28;28.30;;;10.00;58.70;;;;;;5032291;28;20026;-81
2023/02/13 10:05:23;;;;;;;58.58;28.00;;;10.10;58.70;;;;;;5032405;28;20026;-80
2023/02/13 10:08:20;;;;;;;58.10;27.58;;;10.10;58.70;;;;;;5033624;28;20100;-80
2023/02/13 10:10:58;;;;;;;58.13;27.33;;;10.10;58.50;;;;;;4992923;28;20033;-83
2023/02/13 10:13:45;;;;;;;61.63;27.90;;;10.10;58.50;;;;;;5033101;28;20062;-80
2023/02/13 10:16:18;;;;;;;61.83;30.55;;;10.10;58.50;;;;;;5033077;28;20104;-80
2023/02/13 10:18:54;;;;;;;55.78;27.30;;;10.10;58.50;;;;;;5033045;28;20033;-81
2023/02/13 10:21:25;;;;;;;59.42;27.30;;;10.20;58.60;;;;;;5033101;28;20072;-81
2023/02/13 10:24:06;;;;;;;54.40;26.08;;;10.20;58.40;;;;;;5031833;28;20028;-82
2023/02/13 10:26:41;;;;;;;67.93;32.35;;;10.20;58.30;;;;;;5013487;28;20022;-82
2023/02/13 10:32:00;;;;;;;69.25;28.50;;;10.30;58.30;;;;;;5023804;28;20359;-80
2023/02/13 10:34:30;;;;;;;56.10;27.83;;;10.30;58.20;;;;;;5031802;28;20026;-81
2023/02/13 10:36:57;;;;;;;59.03;27.20;;;10.30;58.10;;;;;;5032100;28;20379;-81
2023/02/13 10:39:25;;;;;;;52.03;25.88;;;10.30;58.10;;;;;;5017691;28;20038;-79
2023/02/13 10:42:11;;;;;;;53.45;26.25;;;10.30;58.10;;;;;;5027022;28;20017;-82
2023/02/13 10:45:11;;;;;;;52.15;24.95;;;10.30;58.00;;;;;;5032855;28;20159;-81
2023/02/13 10:47:48;;;;;;;50.13;23.83;;;10.40;58.10;;;;;;5024781;28;20034;-79
2023/02/13 10:50:26;;;;;;;53.92;24.55;;;10.40;58.10;;;;;;5032258;28;20026;-81
2023/02/13 10:53:06;;;;;;;60.28;25.45;;;10.50;58.00;;;;;;5016742;28;20172;-80
2023/02/13 10:56:09;;;;;;;51.53;24.48;;;10.50;57.90;;;;;;5035578;28;20078;-81
2023/02/13 10:58:50;;;;;;;63.70;24.02;;;10.50;57.80;;;;;;5020878;28;20021;-80
2023/02/13 11:01:31;;;;;;;45.80;24.30;;;10.60;57.70;;;;;;5034277;28;20025;-79
2023/02/13 11:04:10;;;;;;;52.45;24.90;;;10.60;57.80;;;;;;5055694;28;20028;-76
2023/02/13 11:06:41;;;;;;;45.53;23.58;;;10.60;57.80;;;;;;5046410;28;20421;-80
2023/02/13 11:09:08;;;;;;;49.63;24.55;;;10.60;57.80;;;;;;5039628;28;20031;-81
2023/02/13 11:11:39;;;;;;;50.20;24.88;;;10.70;57.80;;;;;;5056007;28;20029;-82
2023/02/13 11:14:18;;;;;;;56.50;26.15;;;10.70;57.70;;;;;;5036607;28;20033;-76
2023/02/13 11:17:02;;;;;;;46.88;25.55;;;10.80;57.70;;;;;;5055194;28;20091;-72
2023/02/13 11:19:36;;;;;;;54.50;24.25;;;10.80;57.60;;;;;;5071013;28;20059;-73
2023/02/13 11:22:12;;;;;;;52.10;26.20;;;10.80;57.50;;;;;;5062891;28;20032;-72
2023/02/13 11:24:52;;;;;;;47.67;24.10;;;10.90;57.50;;;;;;5075390;28;20021;-72
2023/02/13 11:27:25;;;;;;;52.08;24.48;;;10.90;57.50;;;;;;5058586;28;20035;-72
2023/02/13 11:30:06;;;;;;;52.40;25.00;;;11.00;57.50;;;;;;5069017;28;20021;-72
2023/02/13 11:32:34;;;;;;;47.50;24.80;;;11.00;57.40;;;;;;5065917;28;20273;-72
2023/02/13 11:35:33;;;;;;;52.15;25.23;;;11.10;57.30;;;;;;5070875;28;20035;-73
2023/02/13 11:38:21;;;;;;;45.85;22.70;;;11.10;57.30;;;;;;4981425;28;20415;-72
2023/02/13 11:40:51;;;;;;;47.83;24.85;;;11.10;57.10;;;;;;4987581;28;20030;-72
2023/02/13 11:43:23;;;;;;;52.22;24.20;;;11.20;57.10;;;;;;4989852;28;20061;-72
2023/02/13 11:46:20;;;;;;;48.08;25.10;;;11.20;56.90;;;;;;4971214;28;20130;-72
2023/02/13 11:49:04;;;;;;;46.90;24.67;;;11.20;56.80;;;;;;4987223;28;20096;-72
2023/02/13 11:51:50;;;;;;;53.55;24.40;;;11.30;56.80;;;;;;4993076;28;20053;-72
2023/02/13 11:54:24;;;;;;;49.80;23.88;;;11.30;56.70;;;;;;4992288;28;20038;-72
2023/02/13 11:57:02;;;;;;;55.25;24.90;;;11.30;56.60;;;;;;4991780;28;20074;-72
2023/02/13 11:59:32;;;;;;;51.45;25.75;;;11.30;56.60;;;;;;4993073;28;20491;-72
2023/02/13 12:02:15;;;;;;;55.05;25.67;;;11.40;56.50;;;;;;4992381;28;20108;-72
2023/02/13 12:04:41;;;;;;;51.20;24.55;;;11.30;56.30;;;;;;4993318;28;20027;-72
2023/02/13 12:07:26;;;;;;;54.13;25.85;;;11.40;56.30;;;;;;4989628;28;20081;-72
2023/02/13 12:10:22;;;;;;;51.15;25.52;;;11.30;56.10;;;;;;4993014;28;20113;-72
2023/02/13 12:13:33;;;;;;;56.83;25.50;;;11.30;56.10;;;;;;5004147;28;20064;-72
2023/02/13 12:16:05;;;;;;;49.85;25.75;;;11.30;56.10;;;;;;5049114;28;20040;-72
2023/02/13 12:18:34;;;;;;;57.03;26.77;;;11.30;56.20;;;;;;5065750;28;20374;-72
2023/02/13 12:21:15;;;;;;;51.90;25.30;;;11.30;56.20;;;;;;5071240;28;20115;-72
2023/02/13 12:23:53;;;;;;;54.33;25.85;;;11.30;56.30;;;;;;5043996;28;20054;-73
2023/02/13 12:26:39;;;;;;;61.38;25.52;;;11.20;56.20;;;;;;5071846;28;20497;-72
2023/02/13 12:29:23;;;;;;;70.25;26.90;;;11.20;56.30;;;;;;5072619;28;20055;-72
2023/02/13 12:31:57;;;;;;;58.38;27.15;;;11.20;56.40;;;;;;5046004;28;20078;-72
2023/02/13 12:34:41;;;;;;;61.08;27.77;;;11.20;56.30;;;;;;5065047;28;20035;-72
2023/02/13 12:37:10;;;;;;;68.05;27.80;;;11.30;56.30;;;;;;5067173;28;20584;-72
2023/02/13 12:40:14;;;;;;;68.75;28.02;;;11.30;56.40;;;;;;5039629;28;20032;-71
2023/02/13 12:43:22;;;;;;;62.03;27.33;;;11.20;56.50;;;;;;5060316;28;20028;-71
2023/02/13 12:46:08;;;;;;;58.58;26.08;;;11.20;56.60;;;;;;5027830;28;20025;-71
2023/02/13 12:48:49;;;;;;;54.03;26.13;;;11.20;56.50;;;;;;5061365;28;20479;-72
2023/02/13 12:51:27;;;;;;;63.70;28.20;;;11.30;56.60;;;;;;5069462;28;20512;-70
2023/02/13 12:54:04;;;;;;;62.08;29.58;;;11.30;56.50;;;;;;5048668;28;20032;-72
2023/02/13 12:57:00;;;;;;;67.90;28.95;;;11.30;56.50;;;;;;5038326;28;20420;-72
2023/02/13 12:59:42;;;;;;;58.53;27.35;;;11.30;56.50;;;;;;5059823;28;20012;-71
2023/02/13 13:02:49;;;;;;;58.30;26.45;;;11.30;56.50;;;;;;5062157;28;20029;-72
2023/02/13 13:05:24;;;;;;;60.30;26.85;;;11.30;56.50;;;;;;5056927;28;20096;-71
2023/02/13 13:08:16;;;;;;;51.58;26.52;;;11.40;56.50;;;;;;5067562;28;20402;-71
2023/02/13 13:11:01;;;;;;;59.13;25.63;;;11.40;56.60;;;;;;5061207;28;20025;-71
2023/02/13 13:13:59;;;;;;;63.88;25.70;;;11.40;56.60;;;;;;5038565;28;20021;-71
2023/02/13 13:16:47;;;;;;;61.13;25.10;;;11.50;56.60;;;;;;4992467;28;20502;-71
2023/02/13 13:19:34;;;;;;;55.50;24.85;;;11.50;56.60;;;;;;5052256;28;20020;-71
2023/02/13 13:22:27;;;;;;;60.70;25.25;;;11.50;56.50;;;;;;5072815;28;20036;-71
2023/02/13 13:25:18;;;;;;;46.28;24.30;;;11.50;56.40;;;;;;5040249;28;20017;-69
2023/02/13 13:27:48;;;;;;;52.13;24.20;;;11.60;56.50;;;;;;5043812;28;20362;-71
2023/02/13 13:30:30;;;;;;;64.30;26.92;;;11.60;56.50;;;;;;5034139;28;20127;-71
2023/02/13 13:33:02;;;;;;;48.95;25.00;;;11.60;56.40;;;;;;5057859;28;20102;-70
2023/02/13 13:35:29;;;;;;;51.08;24.60;;;11.70;56.40;;;;;;5069136;28;20025;-70
2023/02/13 13:38:24;;;;;;;49.72;24.58;;;11.70;56.30;;;;;;5059612;28;20052;-70
2023/02/13 13:41:04;;;;;;;50.13;25.63;;;11.70;56.20;;;;;;5058023;28;20033;-71
2023/02/13 13:43:49;;;;;;;57.17;27.77;;;11.80;56.20;;;;;;5063326;28;20473;-70
2023/02/13 13:46:32;;;;;;;;;;;11.80;56.20;;;;;;5045829;28;20053;-70